sensor_id;sensor_type;location;lat;lon;timestamp;temperature;humidity
25616;DHT22;13482;48.234;13.006;2023-05-07T00:02:26;15.60;65.10
25616;DHT22;13482;48.234;13.006;2023-05-07T00:04:53;15.60;65.30
25616;DHT22;13482;48.234;13.006;2023-05-07T00:07:21;15.60;65.40
25616;DHT22;13482;48.234;13.006;2023-05-07T00:09:48;15.60;65.40
25616;DHT22;13482;48.234;13.006;2023-05-07T00:12:15;15.50;65.40
25616;DHT22;13482;48.234;13.006;2023-05-07T00:14:42;15.50;65.30
25616;DHT22;13482;48.234;13.006;2023-05-07T00:17:09;15.50;65.30
25616;DHT22;13482;48.234;13.006;2023-05-07T00:19:37;15.40;65.50
25616;DHT22;13482;48.234;13.006;2023-05-07T00:22:04;15.40;65.70
25616;DHT22;13482;48.234;13.006;2023-05-07T00:24:31;15.40;65.80
25616;DHT22;13482;48.234;13.006;2023-05-07T00:26:58;15.40;65.90
25616;DHT22;13482;48.234;13.006;2023-05-07T00:29:25;15.30;66.20
25616;DHT22;13482;48.234;13.006;2023-05-07T00:31:52;15.30;66.30
25616;DHT22;13482;48.234;13.006;2023-05-07T00:34:21;15.30;66.40
25616;DHT22;13482;48.234;13.006;2023-05-07T00:36:49;15.20;66.40
25616;DHT22;13482;48.234;13.006;2023-05-07T00:39:16;15.20;66.50
25616;DHT22;13482;48.234;13.006;2023-05-07T00:41:43;15.20;66.70
25616;DHT22;13482;48.234;13.006;2023-05-07T00:44:10;15.20;66.70
25616;DHT22;13482;48.234;13.006;2023-05-07T00:46:37;15.10;66.60
25616;DHT22;13482;48.234;13.006;2023-05-07T00:49:05;15.10;66.80
25616;DHT22;13482;48.234;13.006;2023-05-07T00:51:33;15.10;66.70
25616;DHT22;13482;48.234;13.006;2023-05-07T00:54:02;15.10;66.70
25616;DHT22;13482;48.234;13.006;2023-05-07T00:56:30;15.10;66.60
25616;DHT22;13482;48.234;13.006;2023-05-07T00:58:58;15.00;66.50
25616;DHT22;13482;48.234;13.006;2023-05-07T01:01:25;15.00;66.50
25616;DHT22;13482;48.234;13.006;2023-05-07T01:03:53;15.00;66.50
25616;DHT22;13482;48.234;13.006;2023-05-07T01:06:21;15.00;66.40
25616;DHT22;13482;48.234;13.006;2023-05-07T01:08:50;15.00;66.50
25616;DHT22;13482;48.234;13.006;2023-05-07T01:11:19;15.00;66.60
25616;DHT22;13482;48.234;13.006;2023-05-07T01:13:49;15.00;66.70
25616;DHT22;13482;48.234;13.006;2023-05-07T01:16:17;15.00;66.80
25616;DHT22;13482;48.234;13.006;2023-05-07T01:18:44;15.00;66.70
25616;DHT22;13482;48.234;13.006;2023-05-07T01:21:12;14.90;66.60
25616;DHT22;13482;48.234;13.006;2023-05-07T01:23:42;14.90;66.50
25616;DHT22;13482;48.234;13.006;2023-05-07T01:26:10;14.90;66.30
25616;DHT22;13482;48.234;13.006;2023-05-07T01:28:37;14.90;66.40
25616;DHT22;13482;48.234;13.006;2023-05-07T01:31:04;14.90;66.60
25616;DHT22;13482;48.234;13.006;2023-05-07T01:33:35;14.90;66.50
25616;DHT22;13482;48.234;13.006;2023-05-07T01:36:03;14.80;66.40
25616;DHT22;13482;48.234;13.006;2023-05-07T01:38:33;14.80;66.30
25616;DHT22;13482;48.234;13.006;2023-05-07T01:41:01;14.80;66.50
25616;DHT22;13482;48.234;13.006;2023-05-07T01:43:30;14.80;66.50
25616;DHT22;13482;48.234;13.006;2023-05-07T01:45:58;14.80;66.40
25616;DHT22;13482;48.234;13.006;2023-05-07T01:48:27;14.70;66.40
25616;DHT22;13482;48.234;13.006;2023-05-07T01:50:55;14.70;66.50
25616;DHT22;13482;48.234;13.006;2023-05-07T01:55:58;14.70;66.80
25616;DHT22;13482;48.234;13.006;2023-05-07T01:58:25;14.60;66.90
25616;DHT22;13482;48.234;13.006;2023-05-07T02:00:52;14.60;66.90
25616;DHT22;13482;48.234;13.006;2023-05-07T02:03:19;14.60;66.80
25616;DHT22;13482;48.234;13.006;2023-05-07T02:05:47;14.60;66.80
25616;DHT22;13482;48.234;13.006;2023-05-07T02:08:14;14.60;66.80
25616;DHT22;13482;48.234;13.006;2023-05-07T02:10:42;14.60;66.80
25616;DHT22;13482;48.234;13.006;2023-05-07T02:13:09;14.60;66.80
25616;DHT22;13482;48.234;13.006;2023-05-07T02:15:36;14.50;66.80
25616;DHT22;13482;48.234;13.006;2023-05-07T02:18:08;14.50;67.00
25616;DHT22;13482;48.234;13.006;2023-05-07T02:20:38;14.50;67.40
25616;DHT22;13482;48.234;13.006;2023-05-07T02:23:05;14.50;67.30
25616;DHT22;13482;48.234;13.006;2023-05-07T02:25:32;14.50;67.40
25616;DHT22;13482;48.234;13.006;2023-05-07T02:27:59;14.50;67.40
25616;DHT22;13482;48.234;13.006;2023-05-07T02:30:26;14.50;67.50
25616;DHT22;13482;48.234;13.006;2023-05-07T02:32:54;14.50;67.50
25616;DHT22;13482;48.234;13.006;2023-05-07T02:35:21;14.50;67.70
25616;DHT22;13482;48.234;13.006;2023-05-07T02:37:48;14.50;67.70
25616;DHT22;13482;48.234;13.006;2023-05-07T02:40:15;14.50;67.60
25616;DHT22;13482;48.234;13.006;2023-05-07T02:42:43;14.50;67.60
25616;DHT22;13482;48.234;13.006;2023-05-07T02:45:10;14.40;67.70
25616;DHT22;13482;48.234;13.006;2023-05-07T02:47:37;14.40;67.70
25616;DHT22;13482;48.234;13.006;2023-05-07T02:50:05;14.40;67.70
25616;DHT22;13482;48.234;13.006;2023-05-07T02:52:33;14.40;67.70
25616;DHT22;13482;48.234;13.006;2023-05-07T02:55:00;14.40;67.90
25616;DHT22;13482;48.234;13.006;2023-05-07T02:57:27;14.40;68.00
25616;DHT22;13482;48.234;13.006;2023-05-07T02:59:55;14.40;68.00
25616;DHT22;13482;48.234;13.006;2023-05-07T03:02:22;14.40;68.00
25616;DHT22;13482;48.234;13.006;2023-05-07T03:04:49;14.40;68.20
25616;DHT22;13482;48.234;13.006;2023-05-07T03:07:16;14.40;68.40
25616;DHT22;13482;48.234;13.006;2023-05-07T03:09:43;14.40;68.40
25616;DHT22;13482;48.234;13.006;2023-05-07T03:12:11;14.40;68.30
25616;DHT22;13482;48.234;13.006;2023-05-07T03:14:38;14.40;68.40
25616;DHT22;13482;48.234;13.006;2023-05-07T03:17:06;14.40;68.40
25616;DHT22;13482;48.234;13.006;2023-05-07T03:19:33;14.40;68.50
25616;DHT22;13482;48.234;13.006;2023-05-07T03:22:00;14.40;68.70
25616;DHT22;13482;48.234;13.006;2023-05-07T03:24:27;14.40;68.60
25616;DHT22;13482;48.234;13.006;2023-05-07T03:26:54;14.50;68.60
25616;DHT22;13482;48.234;13.006;2023-05-07T03:29:21;14.50;68.70
25616;DHT22;13482;48.234;13.006;2023-05-07T03:31:48;14.50;68.70
25616;DHT22;13482;48.234;13.006;2023-05-07T03:34:16;14.50;68.70
25616;DHT22;13482;48.234;13.006;2023-05-07T03:36:49;14.50;68.80
25616;DHT22;13482;48.234;13.006;2023-05-07T03:39:16;14.50;68.70
25616;DHT22;13482;48.234;13.006;2023-05-07T03:41:43;14.50;68.70
25616;DHT22;13482;48.234;13.006;2023-05-07T03:44:11;14.50;68.70
25616;DHT22;13482;48.234;13.006;2023-05-07T03:46:38;14.60;68.70
25616;DHT22;13482;48.234;13.006;2023-05-07T03:49:05;14.60;68.70
25616;DHT22;13482;48.234;13.006;2023-05-07T03:51:32;14.60;68.80
25616;DHT22;13482;48.234;13.006;2023-05-07T03:54:00;14.60;68.90
25616;DHT22;13482;48.234;13.006;2023-05-07T03:56:28;14.60;68.90
25616;DHT22;13482;48.234;13.006;2023-05-07T03:58:55;14.60;69.00
25616;DHT22;13482;48.234;13.006;2023-05-07T04:01:22;14.60;69.10
25616;DHT22;13482;48.234;13.006;2023-05-07T04:03:49;14.60;69.30
25616;DHT22;13482;48.234;13.006;2023-05-07T04:06:16;14.60;69.30
25616;DHT22;13482;48.234;13.006;2023-05-07T04:08:44;14.60;69.30
25616;DHT22;13482;48.234;13.006;2023-05-07T04:11:11;14.70;69.30
25616;DHT22;13482;48.234;13.006;2023-05-07T04:13:38;14.70;69.30
25616;DHT22;13482;48.234;13.006;2023-05-07T04:16:05;14.70;69.30
25616;DHT22;13482;48.234;13.006;2023-05-07T04:18:33;14.70;69.20
25616;DHT22;13482;48.234;13.006;2023-05-07T04:21:00;14.70;69.20
25616;DHT22;13482;48.234;13.006;2023-05-07T04:23:27;14.70;69.40
25616;DHT22;13482;48.234;13.006;2023-05-07T04:25:54;14.70;69.50
25616;DHT22;13482;48.234;13.006;2023-05-07T04:28:21;14.80;69.60
25616;DHT22;13482;48.234;13.006;2023-05-07T04:30:49;14.80;69.70
25616;DHT22;13482;48.234;13.006;2023-05-07T04:33:16;14.70;69.80
25616;DHT22;13482;48.234;13.006;2023-05-07T04:35:46;14.80;69.80
25616;DHT22;13482;48.234;13.006;2023-05-07T04:38:13;14.80;69.80
25616;DHT22;13482;48.234;13.006;2023-05-07T04:40:40;14.80;69.80
25616;DHT22;13482;48.234;13.006;2023-05-07T04:43:07;14.80;69.90
25616;DHT22;13482;48.234;13.006;2023-05-07T04:45:36;14.80;69.90
25616;DHT22;13482;48.234;13.006;2023-05-07T04:48:03;14.90;69.90
25616;DHT22;13482;48.234;13.006;2023-05-07T04:50:31;14.90;69.90
25616;DHT22;13482;48.234;13.006;2023-05-07T04:52:58;14.90;69.80
25616;DHT22;13482;48.234;13.006;2023-05-07T04:55:26;15.00;69.90
25616;DHT22;13482;48.234;13.006;2023-05-07T04:57:53;15.00;69.90
25616;DHT22;13482;48.234;13.006;2023-05-07T05:00:20;15.00;70.00
25616;DHT22;13482;48.234;13.006;2023-05-07T05:02:48;15.10;70.00
25616;DHT22;13482;48.234;13.006;2023-05-07T05:05:16;15.10;69.90
25616;DHT22;13482;48.234;13.006;2023-05-07T05:07:43;15.20;69.90
25616;DHT22;13482;48.234;13.006;2023-05-07T05:10:11;15.20;69.90
25616;DHT22;13482;48.234;13.006;2023-05-07T05:12:38;15.20;69.90
25616;DHT22;13482;48.234;13.006;2023-05-07T05:15:06;15.30;69.90
25616;DHT22;13482;48.234;13.006;2023-05-07T05:17:34;15.30;69.90
25616;DHT22;13482;48.234;13.006;2023-05-07T05:20:01;15.40;69.90
25616;DHT22;13482;48.234;13.006;2023-05-07T05:22:29;15.40;70.00
25616;DHT22;13482;48.234;13.006;2023-05-07T05:24:57;15.40;70.20
25616;DHT22;13482;48.234;13.006;2023-05-07T05:27:24;15.50;70.30
25616;DHT22;13482;48.234;13.006;2023-05-07T05:29:52;15.60;70.60
25616;DHT22;13482;48.234;13.006;2023-05-07T05:32:19;15.70;70.80
25616;DHT22;13482;48.234;13.006;2023-05-07T05:34:46;15.80;71.00
25616;DHT22;13482;48.234;13.006;2023-05-07T05:37:13;15.90;70.90
25616;DHT22;13482;48.234;13.006;2023-05-07T05:39:40;16.00;71.00
25616;DHT22;13482;48.234;13.006;2023-05-07T05:42:08;16.10;71.30
25616;DHT22;13482;48.234;13.006;2023-05-07T05:44:35;16.30;71.60
25616;DHT22;13482;48.234;13.006;2023-05-07T05:47:03;16.40;71.90
25616;DHT22;13482;48.234;13.006;2023-05-07T05:49:30;16.60;72.10
25616;DHT22;13482;48.234;13.006;2023-05-07T05:51:57;16.80;72.10
25616;DHT22;13482;48.234;13.006;2023-05-07T05:54:24;17.00;72.00
25616;DHT22;13482;48.234;13.006;2023-05-07T05:56:52;17.20;71.90
25616;DHT22;13482;48.234;13.006;2023-05-07T05:59:19;17.40;71.60
25616;DHT22;13482;48.234;13.006;2023-05-07T06:01:46;17.60;71.60
25616;DHT22;13482;48.234;13.006;2023-05-07T06:04:14;17.80;71.60
25616;DHT22;13482;48.234;13.006;2023-05-07T06:06:41;17.90;71.40
25616;DHT22;13482;48.234;13.006;2023-05-07T06:09:08;18.10;71.20
25616;DHT22;13482;48.234;13.006;2023-05-07T06:11:35;18.30;71.10
25616;DHT22;13482;48.234;13.006;2023-05-07T06:14:02;18.50;70.80
25616;DHT22;13482;48.234;13.006;2023-05-07T06:16:29;18.60;70.50
25616;DHT22;13482;48.234;13.006;2023-05-07T06:18:56;18.80;70.30
25616;DHT22;13482;48.234;13.006;2023-05-07T06:21:24;18.90;70.20
25616;DHT22;13482;48.234;13.006;2023-05-07T06:23:51;19.10;70.00
25616;DHT22;13482;48.234;13.006;2023-05-07T06:26:19;19.20;69.90
25616;DHT22;13482;48.234;13.006;2023-05-07T06:28:46;19.30;69.70
25616;DHT22;13482;48.234;13.006;2023-05-07T06:31:18;19.50;69.60
25616;DHT22;13482;48.234;13.006;2023-05-07T06:33:49;19.60;69.60
25616;DHT22;13482;48.234;13.006;2023-05-07T06:36:16;19.70;69.40
25616;DHT22;13482;48.234;13.006;2023-05-07T06:38:43;19.80;69.30
25616;DHT22;13482;48.234;13.006;2023-05-07T06:41:10;20.00;69.30
25616;DHT22;13482;48.234;13.006;2023-05-07T06:43:37;20.10;69.10
25616;DHT22;13482;48.234;13.006;2023-05-07T06:46:05;20.20;69.10
25616;DHT22;13482;48.234;13.006;2023-05-07T06:48:32;20.30;69.10
25616;DHT22;13482;48.234;13.006;2023-05-07T06:50:59;20.50;69.00
25616;DHT22;13482;48.234;13.006;2023-05-07T06:53:26;20.60;69.00
25616;DHT22;13482;48.234;13.006;2023-05-07T06:55:55;20.80;68.80
25616;DHT22;13482;48.234;13.006;2023-05-07T06:58:22;20.90;68.60
25616;DHT22;13482;48.234;13.006;2023-05-07T07:00:49;21.00;68.50
25616;DHT22;13482;48.234;13.006;2023-05-07T07:03:16;21.20;68.40
25616;DHT22;13482;48.234;13.006;2023-05-07T07:05:43;21.30;68.20
25616;DHT22;13482;48.234;13.006;2023-05-07T07:08:10;21.40;68.20
25616;DHT22;13482;48.234;13.006;2023-05-07T07:10:37;21.50;68.10
25616;DHT22;13482;48.234;13.006;2023-05-07T07:13:04;21.60;67.90
25616;DHT22;13482;48.234;13.006;2023-05-07T07:15:32;21.70;67.70
25616;DHT22;13482;48.234;13.006;2023-05-07T07:17:59;21.80;67.50
25616;DHT22;13482;48.234;13.006;2023-05-07T07:20:26;21.80;67.40
25616;DHT22;13482;48.234;13.006;2023-05-07T07:22:53;21.90;67.20
25616;DHT22;13482;48.234;13.006;2023-05-07T07:25:20;22.00;67.20
25616;DHT22;13482;48.234;13.006;2023-05-07T07:27:47;22.10;67.00
25616;DHT22;13482;48.234;13.006;2023-05-07T07:30:14;22.20;66.80
25616;DHT22;13482;48.234;13.006;2023-05-07T07:32:42;22.20;66.90
25616;DHT22;13482;48.234;13.006;2023-05-07T07:35:09;22.40;67.00
25616;DHT22;13482;48.234;13.006;2023-05-07T07:37:37;22.50;66.90
25616;DHT22;13482;48.234;13.006;2023-05-07T07:40:04;22.60;67.00
25616;DHT22;13482;48.234;13.006;2023-05-07T07:42:32;22.70;66.70
25616;DHT22;13482;48.234;13.006;2023-05-07T07:44:59;22.80;66.70
25616;DHT22;13482;48.234;13.006;2023-05-07T07:47:26;22.90;66.50
25616;DHT22;13482;48.234;13.006;2023-05-07T07:49:53;23.00;66.30
25616;DHT22;13482;48.234;13.006;2023-05-07T07:52:20;23.20;66.50
25616;DHT22;13482;48.234;13.006;2023-05-07T07:54:47;23.30;66.30
25616;DHT22;13482;48.234;13.006;2023-05-07T07:57:15;23.40;66.40
25616;DHT22;13482;48.234;13.006;2023-05-07T07:59:42;23.60;66.20
25616;DHT22;13482;48.234;13.006;2023-05-07T08:02:10;23.70;65.90
25616;DHT22;13482;48.234;13.006;2023-05-07T08:04:37;23.80;65.60
25616;DHT22;13482;48.234;13.006;2023-05-07T08:07:04;23.90;65.30
25616;DHT22;13482;48.234;13.006;2023-05-07T08:09:32;24.10;65.10
25616;DHT22;13482;48.234;13.006;2023-05-07T08:11:59;24.10;65.00
25616;DHT22;13482;48.234;13.006;2023-05-07T08:14:27;24.20;64.90
25616;DHT22;13482;48.234;13.006;2023-05-07T08:16:55;24.30;65.00
25616;DHT22;13482;48.234;13.006;2023-05-07T08:19:22;24.50;65.10
25616;DHT22;13482;48.234;13.006;2023-05-07T08:21:49;24.60;64.90
25616;DHT22;13482;48.234;13.006;2023-05-07T08:24:17;24.70;64.40
25616;DHT22;13482;48.234;13.006;2023-05-07T08:26:45;24.80;64.30
25616;DHT22;13482;48.234;13.006;2023-05-07T08:29:13;24.90;64.20
25616;DHT22;13482;48.234;13.006;2023-05-07T08:31:40;25.00;63.20
25616;DHT22;13482;48.234;13.006;2023-05-07T08:34:07;25.10;63.40
25616;DHT22;13482;48.234;13.006;2023-05-07T08:36:36;25.10;63.80
25616;DHT22;13482;48.234;13.006;2023-05-07T08:39:03;25.20;63.70
25616;DHT22;13482;48.234;13.006;2023-05-07T08:41:30;25.30;63.60
25616;DHT22;13482;48.234;13.006;2023-05-07T08:43:58;25.40;63.80
25616;DHT22;13482;48.234;13.006;2023-05-07T08:46:31;25.50;63.60
25616;DHT22;13482;48.234;13.006;2023-05-07T08:48:59;25.60;63.20
25616;DHT22;13482;48.234;13.006;2023-05-07T08:51:26;25.70;62.60
25616;DHT22;13482;48.234;13.006;2023-05-07T08:53:53;25.80;62.30
25616;DHT22;13482;48.234;13.006;2023-05-07T08:56:20;25.80;62.50
25616;DHT22;13482;48.234;13.006;2023-05-07T08:58:48;25.80;62.60
25616;DHT22;13482;48.234;13.006;2023-05-07T09:01:16;25.90;62.80
25616;DHT22;13482;48.234;13.006;2023-05-07T09:03:45;26.00;62.90
25616;DHT22;13482;48.234;13.006;2023-05-07T09:06:14;26.10;62.70
25616;DHT22;13482;48.234;13.006;2023-05-07T09:08:53;26.20;62.70
25616;DHT22;13482;48.234;13.006;2023-05-07T09:11:22;26.30;62.40
25616;DHT22;13482;48.234;13.006;2023-05-07T09:13:54;26.50;62.40
25616;DHT22;13482;48.234;13.006;2023-05-07T09:16:25;26.60;61.90
25616;DHT22;13482;48.234;13.006;2023-05-07T09:18:54;26.70;61.80
25616;DHT22;13482;48.234;13.006;2023-05-07T09:21:21;26.80;61.60
25616;DHT22;13482;48.234;13.006;2023-05-07T09:23:54;26.80;61.60
25616;DHT22;13482;48.234;13.006;2023-05-07T09:26:22;26.90;61.50
25616;DHT22;13482;48.234;13.006;2023-05-07T09:28:51;27.00;61.60
25616;DHT22;13482;48.234;13.006;2023-05-07T09:31:18;27.10;61.30
25616;DHT22;13482;48.234;13.006;2023-05-07T09:33:47;27.10;61.20
25616;DHT22;13482;48.234;13.006;2023-05-07T09:36:14;27.20;61.40
25616;DHT22;13482;48.234;13.006;2023-05-07T09:38:41;27.30;61.20
25616;DHT22;13482;48.234;13.006;2023-05-07T09:41:11;27.30;61.00
25616;DHT22;13482;48.234;13.006;2023-05-07T09:43:40;27.40;60.80
25616;DHT22;13482;48.234;13.006;2023-05-07T09:46:14;27.50;60.60
25616;DHT22;13482;48.234;13.006;2023-05-07T09:48:44;27.60;60.10
25616;DHT22;13482;48.234;13.006;2023-05-07T09:51:31;27.60;60.40
25616;DHT22;13482;48.234;13.006;2023-05-07T09:54:02;27.70;59.90
25616;DHT22;13482;48.234;13.006;2023-05-07T09:56:30;27.70;60.80
25616;DHT22;13482;48.234;13.006;2023-05-07T09:59:01;27.80;60.60
25616;DHT22;13482;48.234;13.006;2023-05-07T10:01:31;27.90;59.90
25616;DHT22;13482;48.234;13.006;2023-05-07T10:03:59;27.90;60.20
25616;DHT22;13482;48.234;13.006;2023-05-07T10:06:28;28.00;60.30
25616;DHT22;13482;48.234;13.006;2023-05-07T10:08:57;28.00;60.20
25616;DHT22;13482;48.234;13.006;2023-05-07T10:11:25;28.10;59.90
25616;DHT22;13482;48.234;13.006;2023-05-07T10:13:53;28.10;59.80
25616;DHT22;13482;48.234;13.006;2023-05-07T10:16:21;28.20;59.60
25616;DHT22;13482;48.234;13.006;2023-05-07T10:18:49;28.20;59.60
25616;DHT22;13482;48.234;13.006;2023-05-07T10:21:19;28.30;59.20
25616;DHT22;13482;48.234;13.006;2023-05-07T10:23:57;28.30;59.10
25616;DHT22;13482;48.234;13.006;2023-05-07T10:26:29;28.40;58.70
25616;DHT22;13482;48.234;13.006;2023-05-07T10:29:04;28.40;58.90
25616;DHT22;13482;48.234;13.006;2023-05-07T10:34:19;28.50;57.90
25616;DHT22;13482;48.234;13.006;2023-05-07T10:36:49;28.50;58.60
25616;DHT22;13482;48.234;13.006;2023-05-07T10:39:17;28.50;58.60
25616;DHT22;13482;48.234;13.006;2023-05-07T10:41:44;28.60;58.80
25616;DHT22;13482;48.234;13.006;2023-05-07T10:44:12;28.60;58.60
25616;DHT22;13482;48.234;13.006;2023-05-07T10:47:12;28.60;58.30
25616;DHT22;13482;48.234;13.006;2023-05-07T10:52:15;28.80;58.50
25616;DHT22;13482;48.234;13.006;2023-05-07T10:57:44;29.00;57.30
25616;DHT22;13482;48.234;13.006;2023-05-07T11:03:05;29.20;58.10
25616;DHT22;13482;48.234;13.006;2023-05-07T11:05:34;29.30;58.30
25616;DHT22;13482;48.234;13.006;2023-05-07T11:08:04;29.40;58.00
25616;DHT22;13482;48.234;13.006;2023-05-07T11:10:52;29.50;57.90
25616;DHT22;13482;48.234;13.006;2023-05-07T11:13:45;29.60;56.10
25616;DHT22;13482;48.234;13.006;2023-05-07T11:16:23;29.70;56.10
25616;DHT22;13482;48.234;13.006;2023-05-07T11:18:53;29.70;56.90
25616;DHT22;13482;48.234;13.006;2023-05-07T11:21:41;29.70;56.40
25616;DHT22;13482;48.234;13.006;2023-05-07T11:24:09;29.70;55.20
25616;DHT22;13482;48.234;13.006;2023-05-07T11:26:45;29.70;56.20
25616;DHT22;13482;48.234;13.006;2023-05-07T11:29:22;29.70;55.20
25616;DHT22;13482;48.234;13.006;2023-05-07T11:31:53;29.70;55.50
25616;DHT22;13482;48.234;13.006;2023-05-07T11:34:22;29.70;55.10
25616;DHT22;13482;48.234;13.006;2023-05-07T11:36:51;29.70;55.40
25616;DHT22;13482;48.234;13.006;2023-05-07T11:39:30;29.70;55.50
25616;DHT22;13482;48.234;13.006;2023-05-07T11:42:02;29.70;55.20
25616;DHT22;13482;48.234;13.006;2023-05-07T11:44:43;29.70;55.70
25616;DHT22;13482;48.234;13.006;2023-05-07T11:47:21;29.70;54.40
25616;DHT22;13482;48.234;13.006;2023-05-07T11:49:49;29.70;55.50
25616;DHT22;13482;48.234;13.006;2023-05-07T11:52:18;29.70;55.40
25616;DHT22;13482;48.234;13.006;2023-05-07T11:54:56;29.80;55.50
25616;DHT22;13482;48.234;13.006;2023-05-07T11:57:24;29.90;54.90
25616;DHT22;13482;48.234;13.006;2023-05-07T12:00:01;29.90;55.30
25616;DHT22;13482;48.234;13.006;2023-05-07T12:02:31;30.00;54.40
25616;DHT22;13482;48.234;13.006;2023-05-07T12:05:00;30.10;55.00
25616;DHT22;13482;48.234;13.006;2023-05-07T12:07:29;30.20;54.60
25616;DHT22;13482;48.234;13.006;2023-05-07T12:09:56;30.20;54.50
25616;DHT22;13482;48.234;13.006;2023-05-07T12:12:23;30.20;54.40
25616;DHT22;13482;48.234;13.006;2023-05-07T12:14:51;30.30;54.50
25616;DHT22;13482;48.234;13.006;2023-05-07T12:17:18;30.30;54.60
25616;DHT22;13482;48.234;13.006;2023-05-07T12:19:46;30.30;54.60
25616;DHT22;13482;48.234;13.006;2023-05-07T12:22:14;30.40;54.60
25616;DHT22;13482;48.234;13.006;2023-05-07T12:24:49;30.40;54.70
25616;DHT22;13482;48.234;13.006;2023-05-07T12:27:23;30.40;54.70
25616;DHT22;13482;48.234;13.006;2023-05-07T12:29:50;30.50;54.50
25616;DHT22;13482;48.234;13.006;2023-05-07T12:32:19;30.50;53.90
25616;DHT22;13482;48.234;13.006;2023-05-07T12:34:50;30.50;53.80
25616;DHT22;13482;48.234;13.006;2023-05-07T12:37:23;30.50;53.60
25616;DHT22;13482;48.234;13.006;2023-05-07T12:40:08;30.50;53.60
25616;DHT22;13482;48.234;13.006;2023-05-07T12:42:37;30.50;53.30
25616;DHT22;13482;48.234;13.006;2023-05-07T12:45:09;30.50;53.80
25616;DHT22;13482;48.234;13.006;2023-05-07T12:47:37;30.50;53.40
25616;DHT22;13482;48.234;13.006;2023-05-07T12:50:07;30.50;53.80
25616;DHT22;13482;48.234;13.006;2023-05-07T12:52:35;30.50;53.80
25616;DHT22;13482;48.234;13.006;2023-05-07T12:55:06;30.50;53.60
25616;DHT22;13482;48.234;13.006;2023-05-07T12:57:39;30.50;53.10
25616;DHT22;13482;48.234;13.006;2023-05-07T13:00:07;30.50;53.00
25616;DHT22;13482;48.234;13.006;2023-05-07T13:02:39;30.50;53.00
25616;DHT22;13482;48.234;13.006;2023-05-07T13:05:08;30.50;52.60
25616;DHT22;13482;48.234;13.006;2023-05-07T13:07:36;30.50;52.60
25616;DHT22;13482;48.234;13.006;2023-05-07T13:10:04;30.50;52.40
25616;DHT22;13482;48.234;13.006;2023-05-07T13:12:32;30.50;52.20
25616;DHT22;13482;48.234;13.006;2023-05-07T13:14:59;30.50;52.00
25616;DHT22;13482;48.234;13.006;2023-05-07T13:17:26;30.50;52.00
25616;DHT22;13482;48.234;13.006;2023-05-07T13:19:54;30.50;52.20
25616;DHT22;13482;48.234;13.006;2023-05-07T13:22:21;30.50;51.90
25616;DHT22;13482;48.234;13.006;2023-05-07T13:24:48;30.50;52.30
25616;DHT22;13482;48.234;13.006;2023-05-07T13:27:15;30.50;52.40
25616;DHT22;13482;48.234;13.006;2023-05-07T13:29:42;30.60;52.60
25616;DHT22;13482;48.234;13.006;2023-05-07T13:32:09;30.60;52.70
25616;DHT22;13482;48.234;13.006;2023-05-07T13:34:36;30.60;52.40
25616;DHT22;13482;48.234;13.006;2023-05-07T13:37:03;30.70;52.20
25616;DHT22;13482;48.234;13.006;2023-05-07T13:39:31;30.70;52.50
25616;DHT22;13482;48.234;13.006;2023-05-07T13:41:59;30.70;52.20
25616;DHT22;13482;48.234;13.006;2023-05-07T13:44:26;30.80;51.90
25616;DHT22;13482;48.234;13.006;2023-05-07T13:46:54;30.70;51.30
25616;DHT22;13482;48.234;13.006;2023-05-07T13:49:21;30.60;51.30
25616;DHT22;13482;48.234;13.006;2023-05-07T13:51:48;30.50;51.30
25616;DHT22;13482;48.234;13.006;2023-05-07T13:54:15;30.30;51.00
25616;DHT22;13482;48.234;13.006;2023-05-07T13:56:42;30.20;51.50
25616;DHT22;13482;48.234;13.006;2023-05-07T13:59:09;30.10;51.60
25616;DHT22;13482;48.234;13.006;2023-05-07T14:01:36;30.00;52.00
25616;DHT22;13482;48.234;13.006;2023-05-07T14:04:04;30.00;51.90
25616;DHT22;13482;48.234;13.006;2023-05-07T14:06:31;30.00;51.50
25616;DHT22;13482;48.234;13.006;2023-05-07T14:08:58;30.00;51.60
25616;DHT22;13482;48.234;13.006;2023-05-07T14:11:26;29.90;51.70
25616;DHT22;13482;48.234;13.006;2023-05-07T14:13:53;29.90;51.60
25616;DHT22;13482;48.234;13.006;2023-05-07T14:16:21;29.90;51.40
25616;DHT22;13482;48.234;13.006;2023-05-07T14:18:48;29.90;51.40
25616;DHT22;13482;48.234;13.006;2023-05-07T14:21:15;30.00;51.40
25616;DHT22;13482;48.234;13.006;2023-05-07T14:23:42;29.90;51.50
25616;DHT22;13482;48.234;13.006;2023-05-07T14:26:10;29.90;51.50
25616;DHT22;13482;48.234;13.006;2023-05-07T14:28:37;30.00;51.40
25616;DHT22;13482;48.234;13.006;2023-05-07T14:31:06;30.00;51.30
25616;DHT22;13482;48.234;13.006;2023-05-07T14:33:33;30.00;50.80
25616;DHT22;13482;48.234;13.006;2023-05-07T14:36:01;30.00;50.90
25616;DHT22;13482;48.234;13.006;2023-05-07T14:38:28;29.90;50.60
25616;DHT22;13482;48.234;13.006;2023-05-07T14:40:55;29.90;50.60
25616;DHT22;13482;48.234;13.006;2023-05-07T14:43:23;29.90;50.60
25616;DHT22;13482;48.234;13.006;2023-05-07T14:45:50;29.80;50.50
25616;DHT22;13482;48.234;13.006;2023-05-07T14:48:17;29.80;50.50
25616;DHT22;13482;48.234;13.006;2023-05-07T14:50:47;29.80;50.70
25616;DHT22;13482;48.234;13.006;2023-05-07T14:53:15;29.70;50.60
25616;DHT22;13482;48.234;13.006;2023-05-07T14:55:42;29.70;50.80
25616;DHT22;13482;48.234;13.006;2023-05-07T14:58:10;29.70;50.80
25616;DHT22;13482;48.234;13.006;2023-05-07T15:00:38;29.60;50.80
25616;DHT22;13482;48.234;13.006;2023-05-07T15:03:07;29.60;51.00
25616;DHT22;13482;48.234;13.006;2023-05-07T15:05:36;29.60;51.10
25616;DHT22;13482;48.234;13.006;2023-05-07T15:08:04;29.60;50.80
25616;DHT22;13482;48.234;13.006;2023-05-07T15:10:35;29.60;50.80
25616;DHT22;13482;48.234;13.006;2023-05-07T15:13:11;29.60;50.70
25616;DHT22;13482;48.234;13.006;2023-05-07T15:15:42;29.60;50.70
25616;DHT22;13482;48.234;13.006;2023-05-07T15:18:12;29.60;50.60
25616;DHT22;13482;48.234;13.006;2023-05-07T15:20:40;29.60;50.50
25616;DHT22;13482;48.234;13.006;2023-05-07T15:23:08;29.60;50.50
25616;DHT22;13482;48.234;13.006;2023-05-07T15:25:39;29.60;50.60
25616;DHT22;13482;48.234;13.006;2023-05-07T15:28:06;29.60;50.70
25616;DHT22;13482;48.234;13.006;2023-05-07T15:30:34;29.60;50.50
25616;DHT22;13482;48.234;13.006;2023-05-07T15:33:01;29.60;50.40
25616;DHT22;13482;48.234;13.006;2023-05-07T15:35:30;29.50;50.30
25616;DHT22;13482;48.234;13.006;2023-05-07T15:37:57;29.50;50.20